Time;durP1;ratioP1;P1;durP2;ratioP2;P2;SDS_P1;SDS_P2;PMS_P1;PMS_P2;Temp;Humidity;BMP_temperature;BMP_pressure;BME280_temperature;BME280_humidity;BME280_pressure;Samples;Min_cycle;Max_cycle;Signal;HPM_P1;HPM_P2
2020/12/03 00:00:26;;;;;;;4.36;3.96;;;;;;;19.01;47.36;100066.22;;;;-57
2020/12/03 00:03:26;;;;;;;4.87;4.20;;;;;;;18.99;47.42;100054.70;;;;-57
2020/12/03 00:06:26;;;;;;;4.27;3.87;;;;;;;18.96;47.52;100055.81;;;;-50
2020/12/03 00:09:26;;;;;;;4.39;3.99;;;;;;;18.95;47.45;100054.69;;;;-51
2020/12/03 00:12:26;;;;;;;4.09;3.69;;;;;;;18.94;47.43;100049.00;;;;-51
2020/12/03 00:15:26;;;;;;;4.29;3.89;;;;;;;18.92;47.46;100045.34;;;;-57
2020/12/03 00:18:26;;;;;;;4.49;4.09;;;;;;;18.90;47.42;100037.45;;;;-57
2020/12/03 00:21:26;;;;;;;4.67;4.15;;;;;;;18.88;47.46;100031.88;;;;-57
2020/12/03 00:24:26;;;;;;;4.71;4.22;;;;;;;18.86;47.37;100027.37;;;;-57
2020/12/03 00:27:26;;;;;;;4.67;4.23;;;;;;;18.84;47.56;100019.42;;;;-51
2020/12/03 00:30:26;;;;;;;4.44;4.04;;;;;;;18.82;47.57;100018.92;;;;-50
2020/12/03 00:33:26;;;;;;;5.19;4.24;;;;;;;18.80;47.43;100014.55;;;;-51
2020/12/03 00:36:26;;;;;;;4.36;3.96;;;;;;;18.78;47.50;100011.20;;;;-51
2020/12/03 00:39:26;;;;;;;4.35;3.88;;;;;;;18.77;47.51;100012.39;;;;-57
2020/12/03 00:42:26;;;;;;;4.41;4.01;;;;;;;18.75;47.48;100003.47;;;;-57
2020/12/03 00:45:26;;;;;;;4.63;4.19;;;;;;;18.73;47.41;100008.49;;;;-56
2020/12/03 00:48:26;;;;;;;4.19;3.79;;;;;;;18.72;47.47;100003.72;;;;-57
2020/12/03 00:51:26;;;;;;;4.22;3.82;;;;;;;18.71;47.38;100002.89;;;;-57
2020/12/03 00:54:26;;;;;;;4.40;4.00;;;;;;;18.69;47.47;99989.16;;;;-56
2020/12/03 00:57:26;;;;;;;4.30;3.84;;;;;;;18.66;47.33;99975.21;;;;-50
2020/12/03 01:00:26;;;;;;;4.50;4.10;;;;;;;18.64;47.43;99966.94;;;;-57
2020/12/03 01:03:26;;;;;;;4.39;3.99;;;;;;;18.63;47.47;99968.70;;;;-57
2020/12/03 01:06:26;;;;;;;4.34;3.90;;;;;;;18.61;47.49;99965.77;;;;-57
2020/12/03 01:09:26;;;;;;;4.21;3.81;;;;;;;18.60;47.57;99957.92;;;;-57
2020/12/03 01:12:26;;;;;;;4.47;4.06;;;;;;;18.57;47.50;99951.67;;;;-58
2020/12/03 01:15:26;;;;;;;4.53;4.08;;;;;;;18.57;47.45;99947.84;;;;-57
2020/12/03 01:18:26;;;;;;;4.25;3.85;;;;;;;18.56;47.51;99947.36;;;;-50
2020/12/03 01:21:26;;;;;;;4.74;4.20;;;;;;;18.53;47.48;99943.14;;;;-51
2020/12/03 01:24:26;;;;;;;4.21;3.81;;;;;;;18.53;47.59;99939.55;;;;-51
2020/12/03 01:27:26;;;;;;;4.79;4.05;;;;;;;18.51;47.56;99934.62;;;;-51
2020/12/03 01:30:26;;;;;;;4.63;4.20;;;;;;;18.50;47.51;99931.93;;;;-50
2020/12/03 01:33:26;;;;;;;4.28;3.88;;;;;;;18.48;47.44;99926.16;;;;-51
2020/12/03 01:36:26;;;;;;;4.32;3.92;;;;;;;18.46;47.46;99918.28;;;;-57
2020/12/03 01:39:26;;;;;;;4.33;3.93;;;;;;;18.45;47.59;99910.56;;;;-57
2020/12/03 01:42:26;;;;;;;4.22;3.82;;;;;;;18.43;47.54;99910.17;;;;-57
2020/12/03 01:45:26;;;;;;;4.20;3.80;;;;;;;18.42;47.54;99908.46;;;;-51
2020/12/03 01:48:26;;;;;;;4.29;3.88;;;;;;;18.42;47.54;99908.30;;;;-56
2020/12/03 01:51:26;;;;;;;4.12;3.72;;;;;;;18.40;47.64;99904.88;;;;-50
2020/12/03 01:54:26;;;;;;;4.39;3.91;;;;;;;18.38;47.63;99894.50;;;;-57
2020/12/03 01:57:26;;;;;;;4.41;4.01;;;;;;;18.37;47.63;99894.92;;;;-57
2020/12/03 02:00:26;;;;;;;4.86;3.89;;;;;;;18.35;47.67;99893.05;;;;-57
2020/12/03 02:03:26;;;;;;;4.22;3.82;;;;;;;18.34;47.60;99886.56;;;;-51
2020/12/03 02:06:26;;;;;;;4.39;3.99;;;;;;;18.31;47.60;99879.89;;;;-50
2020/12/03 02:09:26;;;;;;;4.42;3.87;;;;;;;18.31;47.69;99873.66;;;;-50
2020/12/03 02:12:26;;;;;;;4.29;3.83;;;;;;;18.31;47.62;99871.39;;;;-57
2020/12/03 02:15:26;;;;;;;4.63;3.97;;;;;;;18.28;47.62;99869.73;;;;-57
2020/12/03 02:18:26;;;;;;;4.41;3.97;;;;;;;18.28;47.62;99864.22;;;;-51
2020/12/03 02:21:26;;;;;;;4.44;4.04;;;;;;;18.27;47.63;99861.31;;;;-51
2020/12/03 02:24:26;;;;;;;4.81;4.31;;;;;;;18.26;47.73;99853.63;;;;-57
2020/12/03 02:27:26;;;;;;;4.53;4.11;;;;;;;18.24;47.58;99846.06;;;;-51
2020/12/03 02:30:26;;;;;;;4.52;4.12;;;;;;;18.24;47.59;99843.38;;;;-51
2020/12/03 02:33:26;;;;;;;4.34;3.94;;;;;;;18.22;47.50;99837.14;;;;-51
2020/12/03 02:36:26;;;;;;;4.19;3.79;;;;;;;18.22;47.62;99835.02;;;;-51
2020/12/03 02:39:26;;;;;;;4.21;3.81;;;;;;;18.19;47.70;99833.06;;;;-51
2020/12/03 02:42:26;;;;;;;4.41;4.01;;;;;;;18.19;47.64;99825.45;;;;-51
2020/12/03 02:45:26;;;;;;;4.14;3.74;;;;;;;18.19;47.63;99822.53;;;;-51
2020/12/03 02:48:26;;;;;;;4.37;3.97;;;;;;;18.17;47.59;99822.11;;;;-51
2020/12/03 02:51:26;;;;;;;4.57;3.99;;;;;;;18.16;47.63;99824.23;;;;-57
2020/12/03 02:54:26;;;;;;;4.31;3.91;;;;;;;18.15;47.64;99821.95;;;;-50
2020/12/03 02:57:26;;;;;;;4.15;3.75;;;;;;;18.15;47.63;99816.92;;;;-51
2020/12/03 03:00:26;;;;;;;4.37;3.97;;;;;;;18.14;47.69;99821.89;;;;-57
2020/12/03 03:03:26;;;;;;;4.63;4.14;;;;;;;18.13;47.68;99825.20;;;;-52
2020/12/03 03:06:26;;;;;;;4.21;3.81;;;;;;;18.12;47.79;99817.34;;;;-51
2020/12/03 03:09:26;;;;;;;4.37;3.97;;;;;;;18.11;47.63;99815.14;;;;-50
2020/12/03 03:12:26;;;;;;;4.68;3.90;;;;;;;18.10;47.68;99813.05;;;;-50
2020/12/03 03:15:26;;;;;;;4.34;3.94;;;;;;;18.09;47.63;99806.86;;;;-57
2020/12/03 03:18:26;;;;;;;4.36;3.96;;;;;;;18.08;47.61;99807.68;;;;-57
2020/12/03 03:21:26;;;;;;;4.31;3.91;;;;;;;18.07;47.56;99810.42;;;;-57
2020/12/03 03:24:26;;;;;;;4.31;3.87;;;;;;;18.06;47.80;99814.33;;;;-51
2020/12/03 03:27:26;;;;;;;4.31;3.91;;;;;;;18.06;47.49;99808.25;;;;-50
2020/12/03 03:30:26;;;;;;;4.51;4.09;;;;;;;18.05;47.69;99800.38;;;;-51
2020/12/03 03:33:26;;;;;;;3.77;3.43;;;;;;;18.04;47.76;99799.41;;;;-51
2020/12/03 03:36:26;;;;;;;4.25;3.85;;;;;;;18.03;47.63;99794.05;;;;-51
2020/12/03 03:39:26;;;;;;;4.28;3.88;;;;;;;18.02;47.63;99797.37;;;;-50
2020/12/03 03:42:26;;;;;;;4.11;3.71;;;;;;;18.01;47.67;99808.08;;;;-51
2020/12/03 03:45:26;;;;;;;3.97;3.57;;;;;;;18.01;47.68;99805.66;;;;-50
2020/12/03 03:48:26;;;;;;;4.34;3.94;;;;;;;17.99;47.56;99797.86;;;;-50
2020/12/03 03:51:26;;;;;;;4.19;3.75;;;;;;;17.97;47.57;99791.78;;;;-50
2020/12/03 03:54:26;;;;;;;3.99;3.59;;;;;;;17.97;47.64;99790.78;;;;-50
2020/12/03 03:57:26;;;;;;;4.21;3.81;;;;;;;17.96;47.57;99792.25;;;;-50
2020/12/03 04:00:26;;;;;;;3.98;3.63;;;;;;;17.95;47.65;99787.88;;;;-51
2020/12/03 04:03:26;;;;;;;4.34;3.94;;;;;;;17.94;47.68;99783.41;;;;-51
2020/12/03 04:06:26;;;;;;;3.77;3.43;;;;;;;17.93;47.76;99786.59;;;;-50
2020/12/03 04:09:26;;;;;;;4.01;3.61;;;;;;;17.93;47.72;99787.08;;;;-51
2020/12/03 04:12:26;;;;;;;4.20;3.80;;;;;;;17.91;47.74;99780.74;;;;-50
2020/12/03 04:15:26;;;;;;;4.07;3.66;;;;;;;17.91;47.71;99785.53;;;;-50
2020/12/03 04:18:27;;;;;;;4.05;3.65;;;;;;;17.90;47.62;99788.02;;;;-50
2020/12/03 04:21:26;;;;;;;4.16;3.76;;;;;;;17.89;47.68;99788.69;;;;-50
2020/12/03 04:24:26;;;;;;;4.05;3.67;;;;;;;17.88;47.70;99791.02;;;;-50
2020/12/03 04:27:26;;;;;;;4.02;3.62;;;;;;;17.88;47.84;99791.91;;;;-51
2020/12/03 04:30:26;;;;;;;3.98;3.59;;;;;;;17.87;47.61;99788.03;;;;-50
2020/12/03 04:33:26;;;;;;;3.81;3.50;;;;;;;17.87;47.73;99782.03;;;;-50
2020/12/03 04:36:26;;;;;;;3.71;3.41;;;;;;;17.85;47.72;99775.55;;;;-51
2020/12/03 04:39:26;;;;;;;3.77;3.46;;;;;;;17.85;47.75;99777.89;;;;-51
2020/12/03 04:42:26;;;;;;;4.10;3.70;;;;;;;17.84;47.66;99773.82;;;;-51
2020/12/03 04:45:26;;;;;;;3.83;3.48;;;;;;;17.83;47.65;99774.97;;;;-50
2020/12/03 04:48:26;;;;;;;13.61;9.58;;;;;;;17.58;44.30;99769.61;;;;-50
2020/12/03 04:51:26;;;;;;;13.19;10.49;;;;;;;17.28;43.16;99766.32;;;;-53
2020/12/03 04:54:26;;;;;;;13.97;11.50;;;;;;;17.08;42.91;99765.52;;;;-53
2020/12/03 04:57:26;;;;;;;14.75;11.86;;;;;;;16.88;42.79;99765.98;;;;-54
2020/12/03 05:00:26;;;;;;;14.39;11.97;;;;;;;16.72;42.49;99765.11;;;;-50
2020/12/03 05:03:26;;;;;;;13.99;10.94;;;;;;;16.80;43.14;99762.74;;;;-50
2020/12/03 05:06:26;;;;;;;12.74;9.87;;;;;;;16.92;44.02;99761.39;;;;-50
2020/12/03 05:09:26;;;;;;;12.65;9.34;;;;;;;17.01;44.68;99757.22;;;;-50
2020/12/03 05:12:26;;;;;;;9.85;8.39;;;;;;;17.09;44.92;99755.89;;;;-50
2020/12/03 05:15:26;;;;;;;9.80;8.60;;;;;;;17.15;45.01;99750.25;;;;-50
2020/12/03 05:18:26;;;;;;;9.11;7.87;;;;;;;17.19;45.25;99743.88;;;;-50
2020/12/03 05:21:26;;;;;;;7.91;7.11;;;;;;;17.21;45.40;99740.89;;;;-50
2020/12/03 05:24:26;;;;;;;9.61;7.11;;;;;;;17.23;45.53;99739.52;;;;-50
2020/12/03 05:27:26;;;;;;;7.71;6.73;;;;;;;17.24;45.51;99734.33;;;;-50
2020/12/03 05:30:26;;;;;;;7.94;6.60;;;;;;;17.25;45.73;99729.48;;;;-50
2020/12/03 05:33:26;;;;;;;7.00;6.12;;;;;;;17.26;45.83;99727.37;;;;-50
2020/12/03 05:36:26;;;;;;;6.53;5.83;;;;;;;17.26;45.97;99723.56;;;;-50
2020/12/03 05:39:26;;;;;;;6.90;5.71;;;;;;;17.26;46.09;99720.52;;;;-51
2020/12/03 05:42:26;;;;;;;6.53;5.59;;;;;;;17.27;46.10;99718.39;;;;-50
2020/12/03 05:45:26;;;;;;;5.90;5.30;;;;;;;17.28;46.17;99714.98;;;;-50
2020/12/03 05:48:26;;;;;;;5.75;5.13;;;;;;;17.29;46.19;99712.74;;;;-50
2020/12/03 05:51:26;;;;;;;5.95;5.29;;;;;;;17.29;46.21;99708.38;;;;-50
2020/12/03 05:54:26;;;;;;;5.66;5.06;;;;;;;17.30;46.30;99706.34;;;;-50
2020/12/03 05:57:26;;;;;;;5.39;4.70;;;;;;;17.30;46.31;99704.39;;;;-50
2020/12/03 06:00:26;;;;;;;4.88;4.41;;;;;;;17.30;46.33;99704.71;;;;-50
2020/12/03 06:03:26;;;;;;;5.91;5.02;;;;;;;17.30;46.45;99699.86;;;;-51
2020/12/03 06:06:26;;;;;;;4.69;4.28;;;;;;;17.30;46.43;99699.45;;;;-50
2020/12/03 06:09:26;;;;;;;5.12;4.27;;;;;;;17.30;46.49;99700.26;;;;-51
2020/12/03 06:12:26;;;;;;;4.86;4.38;;;;;;;17.30;46.55;99698.73;;;;-51
2020/12/03 06:15:26;;;;;;;4.72;4.27;;;;;;;17.29;46.63;99700.84;;;;-51
2020/12/03 06:18:26;;;;;;;4.97;4.33;;;;;;;17.30;46.67;99698.64;;;;-51
2020/12/03 06:22:26;;;;;;;4.35;3.85;;;;;;;17.29;46.65;99691.05;;;;-51
2020/12/03 06:25:26;;;;;;;5.83;4.23;;;;;;;17.29;46.61;99686.75;;;;-56
2020/12/03 06:28:26;;;;;;;4.49;4.09;;;;;;;17.29;46.73;99680.59;;;;-56
2020/12/03 06:31:26;;;;;;;4.50;4.08;;;;;;;17.28;46.75;99679.36;;;;-56
2020/12/03 06:34:26;;;;;;;4.31;3.91;;;;;;;17.28;46.73;99674.98;;;;-55
2020/12/03 06:37:26;;;;;;;4.27;3.87;;;;;;;17.29;46.79;99671.45;;;;-56
2020/12/03 06:40:26;;;;;;;4.69;4.00;;;;;;;17.28;46.73;99663.00;;;;-56
2020/12/03 06:43:26;;;;;;;4.66;3.91;;;;;;;17.30;46.80;99653.38;;;;-55
2020/12/03 06:46:26;;;;;;;4.24;3.81;;;;;;;17.30;46.75;99653.94;;;;-56
2020/12/03 06:49:26;;;;;;;4.36;3.96;;;;;;;17.30;46.78;99649.33;;;;-56
2020/12/03 06:52:26;;;;;;;4.33;3.80;;;;;;;17.29;46.85;99650.23;;;;-56
2020/12/03 06:57:26;;;;;;;4.01;3.61;;;;;;;17.30;46.86;99643.91;;;;-56
2020/12/03 07:00:26;;;;;;;4.08;3.68;;;;;;;17.30;46.90;99646.02;;;;-56
2020/12/03 07:03:26;;;;;;;4.31;3.91;;;;;;;17.29;46.81;99644.56;;;;-56
2020/12/03 07:06:26;;;;;;;4.71;3.69;;;;;;;17.30;46.88;99644.63;;;;-55
2020/12/03 07:10:26;;;;;;;3.97;3.54;;;;;;;17.29;46.90;99640.76;;;;-55
2020/12/03 07:13:26;;;;;;;3.91;3.54;;;;;;;17.28;47.02;99635.31;;;;-51
2020/12/03 07:17:26;;;;;;;3.89;3.59;;;;;;;17.29;46.95;99628.13;;;;-51
2020/12/03 07:22:26;;;;;;;3.97;3.56;;;;;;;17.30;46.97;99617.66;;;;-57
2020/12/03 07:25:26;;;;;;;3.96;3.56;;;;;;;17.30;47.03;99613.46;;;;-57
2020/12/03 07:28:26;;;;;;;3.75;3.45;;;;;;;17.30;46.95;99606.34;;;;-57
2020/12/03 07:31:26;;;;;;;3.89;3.47;;;;;;;17.29;46.95;99603.83;;;;-57
2020/12/03 07:34:26;;;;;;;4.00;3.61;;;;;;;17.29;46.94;99596.63;;;;-56
2020/12/03 07:37:26;;;;;;;3.87;3.47;;;;;;;17.29;47.04;99593.95;;;;-57
2020/12/03 07:40:26;;;;;;;3.74;3.44;;;;;;;17.29;47.05;99597.52;;;;-57
2020/12/03 07:43:26;;;;;;;3.93;3.54;;;;;;;17.29;47.06;99593.39;;;;-57
2020/12/03 07:46:26;;;;;;;3.85;3.42;;;;;;;17.28;47.07;99591.02;;;;-57
2020/12/03 07:49:26;;;;;;;3.97;3.46;;;;;;;17.30;47.01;99583.42;;;;-52
2020/12/03 07:52:26;;;;;;;3.67;3.37;;;;;;;17.31;47.18;99583.11;;;;-51
2020/12/03 07:55:26;;;;;;;3.63;3.33;;;;;;;17.34;47.31;99573.38;;;;-54
2020/12/03 07:58:26;;;;;;;3.59;3.29;;;;;;;17.38;47.66;99568.60;;;;-51
2020/12/03 08:01:26;;;;;;;3.71;3.30;;;;;;;17.45;47.80;99566.17;;;;-49
2020/12/03 08:04:26;;;;;;;3.51;3.21;;;;;;;17.51;48.30;99557.02;;;;-48
2020/12/03 08:07:26;;;;;;;4.18;3.39;;;;;;;17.59;48.64;99553.53;;;;-58
2020/12/03 08:10:26;;;;;;;8.54;3.31;;;;;;;17.66;48.04;99549.42;;;;-58
2020/12/03 08:13:26;;;;;;;3.36;3.06;;;;;;;17.72;47.88;99549.72;;;;-58
2020/12/03 08:16:26;;;;;;;3.97;3.16;;;;;;;17.76;47.88;99554.25;;;;-53
2020/12/03 08:19:26;;;;;;;3.50;3.00;;;;;;;17.81;47.79;99556.29;;;;-56
2020/12/03 08:22:26;;;;;;;3.31;3.01;;;;;;;17.86;47.80;99545.04;;;;-57
2020/12/03 08:25:26;;;;;;;3.33;2.95;;;;;;;17.90;47.84;99526.71;;;;-57
2020/12/03 08:28:26;;;;;;;4.18;3.03;;;;;;;17.96;47.87;99525.56;;;;-50
2020/12/03 08:31:26;;;;;;;3.46;3.03;;;;;;;18.06;48.25;99526.84;;;;-51
2020/12/03 08:34:26;;;;;;;3.80;3.05;;;;;;;18.11;48.17;99520.16;;;;-57
2020/12/03 08:37:26;;;;;;;4.66;2.99;;;;;;;18.17;48.19;99516.58;;;;-50
2020/12/03 08:40:27;;;;;;;3.70;2.88;;;;;;;18.20;47.95;99515.75;;;;-49
2020/12/03 08:43:26;;;;;;;9.78;3.29;;;;;;;18.21;47.88;99519.48;;;;-51
2020/12/03 08:46:26;;;;;;;6.69;4.05;;;;;;;18.22;47.39;99515.59;;;;-48
2020/12/03 08:49:26;;;;;;;5.88;4.41;;;;;;;18.23;47.38;99507.56;;;;-50
2020/12/03 08:52:26;;;;;;;5.88;4.34;;;;;;;18.24;47.07;99491.51;;;;-49
2020/12/03 08:55:26;;;;;;;5.35;4.29;;;;;;;18.27;47.57;99486.95;;;;-48
2020/12/03 08:58:26;;;;;;;9.11;4.45;;;;;;;18.30;47.80;99492.04;;;;-56
2020/12/03 09:01:26;;;;;;;7.52;4.25;;;;;;;18.38;48.22;99493.06;;;;-53
2020/12/03 09:04:26;;;;;;;19.21;4.29;;;;;;;18.44;48.69;99492.95;;;;-51
2020/12/03 09:07:26;;;;;;;10.06;4.61;;;;;;;18.47;48.37;99486.30;;;;-50
2020/12/03 09:10:26;;;;;;;6.87;4.06;;;;;;;18.52;48.61;99481.31;;;;-51
2020/12/03 09:13:26;;;;;;;6.23;4.07;;;;;;;18.57;48.69;99472.02;;;;-51
2020/12/03 09:16:26;;;;;;;6.95;4.11;;;;;;;18.60;48.50;99470.39;;;;-51
2020/12/03 09:19:26;;;;;;;13.79;4.45;;;;;;;18.66;48.55;99468.83;;;;-47
2020/12/03 09:22:26;;;;;;;6.33;3.99;;;;;;;18.69;48.72;99473.00;;;;-55
2020/12/03 09:25:26;;;;;;;6.75;3.85;;;;;;;18.75;48.75;99479.72;;;;-51
2020/12/03 09:28:26;;;;;;;8.30;3.66;;;;;;;18.78;48.62;99474.16;;;;-50
2020/12/03 09:31:26;;;;;;;5.77;3.50;;;;;;;18.83;48.69;99476.70;;;;-52
2020/12/03 09:34:26;;;;;;;4.43;3.41;;;;;;;18.87;48.71;99471.15;;;;-57
2020/12/03 09:37:26;;;;;;;6.51;3.70;;;;;;;18.90;48.65;99468.52;;;;-56
2020/12/03 09:40:26;;;;;;;7.13;3.64;;;;;;;18.93;48.70;99463.79;;;;-52
2020/12/03 09:43:26;;;;;;;7.01;3.57;;;;;;;18.97;48.75;99462.78;;;;-51
2020/12/03 09:46:28;;;;;;;10.81;3.66;;;;;;;19.03;48.61;99461.53;;;;-63
2020/12/03 09:49:25;;;;;;;5.05;3.57;;;;;;;19.09;49.07;99454.80;;;;-57
2020/12/03 09:52:26;;;;;;;6.81;3.71;;;;;;;19.15;48.86;99451.10;;;;-53
2020/12/03 09:55:26;;;;;;;8.27;3.85;;;;;;;19.16;48.57;99450.30;;;;-55
2020/12/03 09:58:26;;;;;;;7.58;3.61;;;;;;;19.14;47.88;99445.03;;;;-53
2020/12/03 10:01:26;;;;;;;6.03;3.77;;;;;;;19.16;48.06;99440.23;;;;-55
2020/12/03 10:04:26;;;;;;;5.92;3.55;;;;;;;19.19;48.36;99435.72;;;;-60
2020/12/03 10:07:26;;;;;;;6.07;3.54;;;;;;;19.21;48.23;99426.94;;;;-58
2020/12/03 10:10:26;;;;;;;4.49;3.51;;;;;;;19.22;48.18;99423.93;;;;-56
2020/12/03 10:13:26;;;;;;;5.05;3.73;;;;;;;19.26;48.31;99412.13;;;;-53
2020/12/03 10:16:26;;;;;;;4.53;3.33;;;;;;;19.29;48.28;99400.95;;;;-63
2020/12/03 10:19:26;;;;;;;6.22;3.45;;;;;;;19.32;48.17;99398.49;;;;-52
2020/12/03 10:22:26;;;;;;;4.93;3.54;;;;;;;19.36;48.22;99399.84;;;;-54
2020/12/03 10:25:26;;;;;;;6.93;3.63;;;;;;;19.39;48.18;99399.30;;;;-52
2020/12/03 10:28:26;;;;;;;4.56;3.31;;;;;;;19.42;48.16;99396.83;;;;-55
2020/12/03 10:31:26;;;;;;;4.03;3.43;;;;;;;19.45;48.29;99390.48;;;;-55
2020/12/03 10:34:26;;;;;;;4.95;3.27;;;;;;;19.48;48.37;99377.92;;;;-54
2020/12/03 10:37:25;;;;;;;5.27;3.43;;;;;;;19.49;48.18;99378.90;;;;-56
2020/12/03 10:40:26;;;;;;;4.03;3.26;;;;;;;19.52;48.23;99376.50;;;;-58
2020/12/03 10:43:27;;;;;;;5.06;3.36;;;;;;;19.53;48.28;99372.35;;;;-61
2020/12/03 10:46:26;;;;;;;4.24;3.32;;;;;;;19.55;48.28;99364.12;;;;-53
2020/12/03 10:49:26;;;;;;;12.43;3.62;;;;;;;19.58;48.36;99350.83;;;;-52
2020/12/03 10:52:26;;;;;;;6.37;3.63;;;;;;;19.62;48.34;99343.47;;;;-51
2020/12/03 10:55:25;;;;;;;6.13;3.49;;;;;;;19.65;48.46;99337.27;;;;-53
2020/12/03 10:58:27;;;;;;;6.31;3.25;;;;;;;19.64;47.99;99329.72;;;;-57
2020/12/03 11:01:27;;;;;;;5.46;3.39;;;;;;;19.63;47.83;99324.69;;;;-52
2020/12/03 11:04:26;;;;;;;6.02;3.29;;;;;;;19.62;47.77;99315.59;;;;-55
2020/12/03 11:07:26;;;;;;;9.55;4.26;;;;;;;19.55;47.08;99317.31;;;;-57
2020/12/03 11:10:25;;;;;;;7.33;4.25;;;;;;;19.54;46.83;99311.14;;;;-53
2020/12/03 11:13:26;;;;;;;6.11;3.65;;;;;;;19.55;46.89;99301.40;;;;-54
2020/12/03 11:16:26;;;;;;;4.36;3.45;;;;;;;19.56;46.94;99290.30;;;;-59
2020/12/03 11:19:26;;;;;;;4.85;3.46;;;;;;;19.57;47.04;99277.64;;;;-54
2020/12/03 11:22:26;;;;;;;5.07;3.47;;;;;;;19.58;47.10;99267.38;;;;-60
2020/12/03 11:25:25;;;;;;;4.93;3.42;;;;;;;19.58;47.08;99258.58;;;;-53
2020/12/03 11:28:26;;;;;;;4.68;3.50;;;;;;;19.60;47.12;99253.37;;;;-58
2020/12/03 11:31:26;;;;;;;4.17;3.40;;;;;;;19.61;47.12;99243.44;;;;-53
2020/12/03 11:34:25;;;;;;;5.91;3.31;;;;;;;19.61;47.14;99229.05;;;;-53
2020/12/03 11:37:26;;;;;;;4.76;3.25;;;;;;;19.62;47.06;99219.39;;;;-59
2020/12/03 11:40:32;;;;;;;3.89;3.23;;;;;;;19.62;47.17;99206.06;;;;-54
2020/12/03 11:43:37;;;;;;;5.11;3.26;;;;;;;19.63;47.08;99198.80;;;;-59
2020/12/03 11:47:07;;;;;;;3.85;3.26;;;;;;;19.64;47.07;99189.78;;;;-59
2020/12/03 11:49:26;;;;;;;5.47;3.23;;;;;;;19.65;47.07;99185.36;;;;-59
2020/12/03 11:52:26;;;;;;;3.75;3.31;;;;;;;19.66;47.05;99186.25;;;;-58
2020/12/03 11:55:26;;;;;;;4.47;3.53;;;;;;;19.68;47.00;99184.10;;;;-59
2020/12/03 11:58:26;;;;;;;4.54;3.19;;;;;;;19.69;47.02;99179.03;;;;-59
2020/12/03 12:01:26;;;;;;;4.64;3.21;;;;;;;19.69;46.99;99176.03;;;;-59
2020/12/03 12:04:29;;;;;;;4.31;3.32;;;;;;;19.70;47.09;99173.44;;;;-59
2020/12/03 12:07:34;;;;;;;4.21;3.21;;;;;;;19.71;47.08;99169.38;;;;-54
2020/12/03 12:10:29;;;;;;;4.67;3.43;;;;;;;19.74;46.96;99163.30;;;;-50
2020/12/03 12:13:26;;;;;;;5.59;3.68;;;;;;;19.73;46.49;99160.08;;;;-52
2020/12/03 12:16:26;;;;;;;4.92;3.32;;;;;;;19.73;46.71;99153.08;;;;-52
2020/12/03 12:19:28;;;;;;;4.42;3.38;;;;;;;19.73;46.81;99150.89;;;;-52
2020/12/03 12:22:26;;;;;;;6.60;3.29;;;;;;;19.74;46.77;99145.59;;;;-60
2020/12/03 12:25:26;;;;;;;4.25;3.15;;;;;;;19.74;46.88;99145.52;;;;-51
2020/12/03 12:28:26;;;;;;;5.49;3.19;;;;;;;19.75;46.88;99142.39;;;;-52
2020/12/03 12:31:25;;;;;;;4.51;3.20;;;;;;;19.76;46.83;99137.61;;;;-52
2020/12/03 12:34:26;;;;;;;5.61;3.19;;;;;;;19.75;46.83;99136.70;;;;-52
2020/12/03 12:37:26;;;;;;;6.50;3.51;;;;;;;19.77;46.81;99133.52;;;;-51
2020/12/03 12:40:26;;;;;;;3.39;3.09;;;;;;;19.77;46.80;99128.88;;;;-52
2020/12/03 12:43:26;;;;;;;6.08;3.17;;;;;;;19.79;46.87;99121.86;;;;-51
2020/12/03 12:46:25;;;;;;;4.94;3.14;;;;;;;19.79;46.82;99120.06;;;;-59
2020/12/03 12:49:26;;;;;;;3.71;2.98;;;;;;;19.81;46.85;99114.17;;;;-61
2020/12/03 12:52:26;;;;;;;3.91;2.96;;;;;;;19.81;46.86;99105.02;;;;-52
2020/12/03 12:55:26;;;;;;;4.91;3.03;;;;;;;19.82;46.87;99097.34;;;;-52
2020/12/03 12:58:26;;;;;;;3.91;2.96;;;;;;;19.82;46.94;99090.52;;;;-60
2020/12/03 13:01:26;;;;;;;3.63;2.92;;;;;;;19.83;46.84;99082.94;;;;-52
2020/12/03 13:04:26;;;;;;;4.39;2.97;;;;;;;19.83;46.89;99075.05;;;;-51
2020/12/03 13:07:26;;;;;;;3.29;2.78;;;;;;;19.84;46.89;99066.02;;;;-60
2020/12/03 13:10:25;;;;;;;3.71;3.04;;;;;;;19.85;46.88;99060.54;;;;-59
2020/12/03 13:13:29;;;;;;;3.61;2.84;;;;;;;19.85;46.91;99048.67;;;;-60
2020/12/03 13:16:26;;;;;;;4.24;3.47;;;;;;;19.84;46.71;99039.27;;;;-60
2020/12/03 13:19:25;;;;;;;4.03;3.63;;;;;;;19.82;46.23;99032.95;;;;-51
2020/12/03 13:22:26;;;;;;;4.87;3.69;;;;;;;19.81;46.24;99025.34;;;;-50
2020/12/03 13:25:26;;;;;;;5.38;3.69;;;;;;;19.79;46.10;99020.24;;;;-50
2020/12/03 13:28:25;;;;;;;3.98;3.58;;;;;;;19.78;45.87;99010.05;;;;-58
2020/12/03 13:31:26;;;;;;;4.37;3.97;;;;;;;19.77;46.04;99006.45;;;;-53
2020/12/03 13:34:26;;;;;;;4.85;3.86;;;;;;;19.75;45.89;98995.77;;;;-59
2020/12/03 13:37:26;;;;;;;8.82;3.91;;;;;;;19.76;46.53;98993.08;;;;-52
2020/12/03 13:40:26;;;;;;;10.53;4.33;;;;;;;19.79;46.42;98987.98;;;;-52
2020/12/03 13:43:25;;;;;;;8.23;4.35;;;;;;;19.82;46.71;98985.33;;;;-55
2020/12/03 13:46:26;;;;;;;5.98;4.05;;;;;;;19.84;46.79;98972.22;;;;-53
2020/12/03 13:49:26;;;;;;;6.67;3.82;;;;;;;19.86;46.98;98965.73;;;;-52
2020/12/03 13:52:26;;;;;;;6.81;3.79;;;;;;;19.86;47.04;98965.03;;;;-52
2020/12/03 13:55:26;;;;;;;4.80;3.56;;;;;;;19.86;47.13;98961.02;;;;-49
2020/12/03 13:58:25;;;;;;;5.37;3.47;;;;;;;19.86;47.55;98960.45;;;;-53
2020/12/03 14:01:26;;;;;;;5.97;3.72;;;;;;;19.87;47.65;98961.41;;;;-47
2020/12/03 14:04:26;;;;;;;7.33;3.61;;;;;;;19.86;48.08;98957.13;;;;-58
2020/12/03 14:07:25;;;;;;;6.07;3.73;;;;;;;19.86;48.30;98955.44;;;;-45
2020/12/03 14:10:25;;;;;;;5.94;3.71;;;;;;;19.86;48.19;98949.97;;;;-50
2020/12/03 14:13:26;;;;;;;5.89;3.37;;;;;;;19.86;48.35;98948.83;;;;-50
2020/12/03 14:16:26;;;;;;;5.11;3.77;;;;;;;19.84;48.46;98943.10;;;;-55
2020/12/03 14:19:26;;;;;;;5.61;3.39;;;;;;;19.85;48.95;98940.87;;;;-51
2020/12/03 14:22:25;;;;;;;4.89;3.27;;;;;;;19.85;48.88;98937.54;;;;-49
2020/12/03 14:25:26;;;;;;;4.11;3.30;;;;;;;19.86;48.78;98935.02;;;;-54
2020/12/03 14:28:26;;;;;;;5.18;3.21;;;;;;;19.85;48.96;98926.97;;;;-55
2020/12/03 14:31:25;;;;;;;4.13;3.21;;;;;;;19.86;48.81;98925.98;;;;-53
2020/12/03 14:34:26;;;;;;;6.28;3.43;;;;;;;19.87;48.86;98918.98;;;;-47
2020/12/03 14:37:26;;;;;;;4.31;3.22;;;;;;;19.88;48.95;98912.53;;;;-59
2020/12/03 14:40:25;;;;;;;5.81;3.13;;;;;;;19.86;48.17;98911.45;;;;-58
2020/12/03 14:43:25;;;;;;;4.82;2.99;;;;;;;19.86;47.88;98907.38;;;;-50
2020/12/03 14:46:27;;;;;;;4.48;3.33;;;;;;;19.84;47.67;98903.20;;;;-50
2020/12/03 14:49:26;;;;;;;5.05;2.99;;;;;;;19.83;47.54;98900.53;;;;-58
2020/12/03 14:52:26;;;;;;;4.00;3.23;;;;;;;19.83;47.52;98900.05;;;;-52
2020/12/03 14:55:28;;;;;;;4.39;3.33;;;;;;;19.82;47.44;98895.77;;;;-51
2020/12/03 14:58:27;;;;;;;4.24;3.28;;;;;;;19.81;47.39;98888.13;;;;-57
2020/12/03 15:01:26;;;;;;;5.16;3.21;;;;;;;19.81;47.28;98878.22;;;;-58
2020/12/03 15:04:25;;;;;;;6.92;3.11;;;;;;;19.81;47.48;98872.37;;;;-55
2020/12/03 15:07:25;;;;;;;5.10;3.03;;;;;;;19.83;47.81;98864.69;;;;-58
2020/12/03 15:10:31;;;;;;;5.07;3.21;;;;;;;19.84;47.98;98854.52;;;;-57
2020/12/03 15:13:26;;;;;;;4.41;3.11;;;;;;;19.86;48.06;98851.55;;;;-50
2020/12/03 15:16:26;;;;;;;5.64;2.90;;;;;;;19.88;48.05;98851.02;;;;-47
2020/12/03 15:19:34;;;;;;;3.27;2.78;;;;;;;19.90;47.99;98840.95;;;;-58
2020/12/03 15:22:25;;;;;;;3.58;3.01;;;;;;;19.91;47.99;98838.83;;;;-55
2020/12/03 15:25:25;;;;;;;4.00;2.84;;;;;;;19.93;47.94;98829.28;;;;-47
2020/12/03 15:28:25;;;;;;;4.07;2.89;;;;;;;19.93;47.88;98826.02;;;;-51
2020/12/03 15:31:25;;;;;;;3.65;2.83;;;;;;;19.94;47.96;98820.70;;;;-58
2020/12/03 15:34:26;;;;;;;3.63;2.84;;;;;;;19.95;47.98;98816.95;;;;-51
2020/12/03 15:37:25;;;;;;;3.64;2.70;;;;;;;19.94;47.93;98818.44;;;;-56
2020/12/03 15:40:25;;;;;;;3.57;2.87;;;;;;;19.97;48.00;98817.98;;;;-53
2020/12/03 15:43:26;;;;;;;5.94;2.78;;;;;;;19.95;47.95;98808.97;;;;-49
2020/12/03 15:46:25;;;;;;;6.44;3.03;;;;;;;19.92;47.67;98799.30;;;;-59
2020/12/03 15:49:25;;;;;;;3.53;3.13;;;;;;;19.91;47.49;98793.89;;;;-54
2020/12/03 15:52:25;;;;;;;4.34;2.97;;;;;;;19.94;47.38;98787.70;;;;-55
2020/12/03 15:55:25;;;;;;;4.20;2.91;;;;;;;19.95;47.58;98785.88;;;;-53
2020/12/03 15:58:26;;;;;;;3.88;2.97;;;;;;;19.98;47.59;98787.38;;;;-59
2020/12/03 16:01:25;;;;;;;3.49;2.83;;;;;;;19.99;47.61;98784.44;;;;-51
2020/12/03 16:04:25;;;;;;;4.33;2.84;;;;;;;20.01;47.66;98783.67;;;;-49
2020/12/03 16:07:25;;;;;;;3.22;2.71;;;;;;;19.99;47.76;98779.13;;;;-54
2020/12/03 16:10:25;;;;;;;4.41;2.80;;;;;;;20.01;47.82;98774.55;;;;-53
2020/12/03 16:13:25;;;;;;;3.72;2.89;;;;;;;20.02;47.79;98773.55;;;;-56
2020/12/03 16:16:25;;;;;;;3.48;2.80;;;;;;;20.02;47.79;98767.77;;;;-58
2020/12/03 16:19:25;;;;;;;3.09;2.71;;;;;;;20.03;47.79;98766.55;;;;-57
2020/12/03 16:22:25;;;;;;;3.20;2.53;;;;;;;20.03;47.71;98758.63;;;;-55
2020/12/03 16:25:25;;;;;;;3.19;2.69;;;;;;;20.05;47.89;98752.19;;;;-56
2020/12/03 16:28:25;;;;;;;3.01;2.67;;;;;;;20.04;47.86;98743.98;;;;-55
2020/12/03 16:31:25;;;;;;;3.07;2.71;;;;;;;20.04;47.83;98742.42;;;;-52
2020/12/03 16:34:25;;;;;;;4.62;3.19;;;;;;;20.02;47.55;98729.16;;;;-52
2020/12/03 16:37:26;;;;;;;3.93;2.92;;;;;;;20.01;47.42;98719.67;;;;-56
2020/12/03 16:40:25;;;;;;;5.87;3.23;;;;;;;20.00;47.02;98718.13;;;;-58
2020/12/03 16:43:26;;;;;;;6.61;3.27;;;;;;;20.00;46.87;98720.00;;;;-52
2020/12/03 16:46:25;;;;;;;5.54;3.07;;;;;;;19.98;46.94;98715.02;;;;-60
2020/12/03 16:49:25;;;;;;;5.81;2.84;;;;;;;19.96;46.92;98709.78;;;;-58
2020/12/03 16:52:25;;;;;;;4.06;2.83;;;;;;;19.95;46.89;98699.47;;;;-58
2020/12/03 16:55:25;;;;;;;4.40;3.08;;;;;;;19.93;46.91;98690.16;;;;-52
2020/12/03 16:58:26;;;;;;;3.99;3.03;;;;;;;19.92;46.92;98683.84;;;;-59
2020/12/03 17:01:26;;;;;;;6.04;2.73;;;;;;;19.90;46.87;98675.78;;;;-59